الصفحة الرئيسية
METAR-TAF:

METAR-TAF

مطار :

لونغياربيين, النرويج

دائرة عرض: 78-15N, خط طول: 015-28E, ارتفاع: 2 متر

مراقبة الطقس الحالي

تاريخ ووقت الإصدار 24 دقيقة قبل الساعة 11:20UTC
ريح 8 عقدة من الغرب
درجة الحرارة 1°درجة مئوية
الرطوبة 80%
ضغط 1014 hPa
الرؤية 10 كم أو أكثر
غيوم قليلة على ارتفاع 1800 قدم
غيوم مفككة على ارتفاع 2800 قدم

METAR: ENSB 271120Z 28008KT 9999 FEW018 BKN028 01/M02 Q1014 RMK WIND 1400FT 25010KT

زمن: 13:44 (11:44 UTC)

توقعات

التوقعات صالحة من27 الساعة 06 UTC إلى 28 الساعة 06 UTC
ريح 10 عقدة من الجنوب/الجنوب الغربي
الرؤية 10 كم أو أكثر
غيوم قليلة على ارتفاع 1200 قدم
غيوم مفككة على ارتفاع 3000 قدم
مؤقت
من 27 الساعة 06 UTC إلى 27 الساعة 12 UTC
الرؤية: 4000 متر
على ارتفاع 1200 قدم
زخات ثلجية, مطر
مؤقت
من 27 الساعة 06 UTC إلى 28 الساعة 06 UTC
ريح 5 عقدةمن اتجاهات متغيرة
مؤقت
من 27 الساعة 18 UTC إلى 28 الساعة 06 UTC
ريح 12 عقدة من الشرق/الجنوب الشرقي
الرؤية: 4000 متر
على ارتفاع 1200 قدم
مطر, ثلوج

TAF: ENSB 2706/2806 20010KT 9999 FEW012 BKN030 TEMPO 2706/2712 4000 SHSNRA VV012 TEMPO 2706/2806 VRB05KT TEMPO 2718/2806 12012KT 4000 RASN VV012

أرصاد الطقس والتوقعات من أكثر من 4000 مطار (تقارير الطقس للمطار METAR والتنبؤ بالطقس بالمطارTAF).

المحطات المتاحة هي النقط الصفراء والحمراء على الخريطة.

حرك المؤشر فوق النقطة لمعرفة اسم المحطة.

ثم انقر لمعرفة أرصاد وتوقعات الطقس.

لتغيير الخارطة: اضغط على الأزرار الخضراء مع رمز الصليب الأسود للتكبير. على الزر الأخضر مع شرطة للتصغير، أو على الأسهم الخضراء للخرائط المجاورة.


METAR-TAF: